Time;durP1;ratioP1;P1;durP2;ratioP2;P2;SDS_P1;SDS_P2;PMS_P1;PMS_P2;Temp;Humidity;BMP_temperature;BMP_pressure;BME280_temperature;BME280_humidity;BME280_pressure;Samples;Min_cycle;Max_cycle;Signal;HPM_P1;HPM_P2
2021/12/14 00:00:58;;;;;;;27.32;18.57;;;;;;;0.78;72.34;95088.98;1688403;83;21560;-60
2021/12/14 00:03:28;;;;;;;23.12;15.60;;;;;;;0.75;72.41;95089.75;1698477;83;21069;-61
2021/12/14 00:05:58;;;;;;;21.80;16.07;;;;;;;0.73;72.52;95088.00;1707792;82;21014;-61
2021/12/14 00:08:35;;;;;;;27.22;17.67;;;;;;;0.74;72.73;95089.55;1687823;83;21073;-68
2021/12/14 00:13:48;;;;;;;27.32;15.53;;;;;;;0.75;72.66;95097.88;1707990;83;21049;-61
2021/12/14 00:16:01;;;;;;;24.55;17.07;;;;;;;0.81;72.64;95099.06;1703913;82;21076;-62
2021/12/14 00:18:33;;;;;;;23.77;15.65;;;;;;;0.89;72.49;95093.91;1705949;83;20994;-60
2021/12/14 00:21:20;;;;;;;18.82;14.20;;;;;;;0.99;72.18;95102.67;1707088;83;21002;-61
2021/12/14 00:24:07;;;;;;;19.25;13.05;;;;;;;1.01;71.80;95106.36;1707776;83;22849;-60
2021/12/14 00:26:48;;;;;;;14.60;12.00;;;;;;;0.97;71.52;95106.92;1708520;83;21481;-62
2021/12/14 00:29:21;;;;;;;20.52;13.75;;;;;;;0.86;71.62;95108.21;1711645;83;20971;-60
2021/12/14 00:31:51;;;;;;;18.00;13.90;;;;;;;0.82;71.78;95113.39;1693202;83;21012;-60
2021/12/14 00:34:24;;;;;;;20.15;13.58;;;;;;;0.77;71.86;95113.16;1691216;83;21107;-60
2021/12/14 00:36:47;;;;;;;23.00;15.43;;;;;;;0.75;71.83;95120.88;1684965;83;21917;-61
2021/12/14 00:39:14;;;;;;;26.12;17.52;;;;;;;0.71;71.93;95120.09;1707946;83;21031;-62
2021/12/14 00:41:43;;;;;;;24.47;15.43;;;;;;;0.68;71.97;95123.55;1673205;83;21060;-60
2021/12/14 00:44:10;;;;;;;23.40;14.33;;;;;;;0.65;72.01;95129.72;1699720;83;21008;-60
2021/12/14 00:46:37;;;;;;;18.98;13.90;;;;;;;0.71;72.31;95129.56;1704757;83;21032;-61
2021/12/14 00:49:08;;;;;;;17.42;12.93;;;;;;;0.89;72.04;95137.23;1701231;83;21156;-61
2021/12/14 00:51:35;;;;;;;23.10;15.63;;;;;;;0.98;71.63;95138.27;1672552;84;21035;-61
2021/12/14 00:54:12;;;;;;;29.05;17.77;;;;;;;0.92;71.59;95133.78;1694674;83;21613;-60
2021/12/14 00:56:40;;;;;;;23.35;15.70;;;;;;;1.00;71.78;95142.14;1690962;83;21199;-61
2021/12/14 00:59:08;;;;;;;25.88;16.12;;;;;;;1.10;71.28;95139.33;1648152;84;21041;-61
2021/12/14 01:01:47;;;;;;;28.20;17.82;;;;;;;1.05;71.01;95137.74;1694616;83;21219;-60
2021/12/14 01:04:19;;;;;;;28.30;16.97;;;;;;;1.02;71.11;95138.50;1716085;83;21037;-61
2021/12/14 01:06:46;;;;;;;25.68;15.68;;;;;;;1.03;71.19;95147.39;1713404;83;21184;-61
2021/12/14 01:09:29;;;;;;;26.05;16.50;;;;;;;0.98;71.01;95147.16;1715646;83;21001;-60
2021/12/14 01:12:04;;;;;;;25.08;16.48;;;;;;;0.93;71.12;95147.52;1708987;83;21164;-62
2021/12/14 01:14:43;;;;;;;19.27;13.75;;;;;;;0.88;71.18;95145.16;1711223;83;21150;-62
2021/12/14 01:17:26;;;;;;;20.08;13.95;;;;;;;0.90;71.54;95141.50;1688602;83;20927;-61
2021/12/14 01:19:49;;;;;;;23.80;13.98;;;;;;;0.95;71.32;95145.20;1713997;83;20978;-61
2021/12/14 01:23:03;;;;;;;20.60;13.50;;;;;;;0.96;71.35;95148.11;1711707;83;21532;-61
2021/12/14 01:27:37;;;;;;;19.02;14.83;;;;;;;0.89;71.03;95133.73;1691279;83;21172;-60
2021/12/14 01:30:29;;;;;;;22.07;15.50;;;;;;;0.84;71.19;95141.66;1709569;83;21105;-60
2021/12/14 01:33:02;;;;;;;18.62;14.75;;;;;;;0.85;71.51;95141.86;1716465;83;20977;-61
2021/12/14 01:35:34;;;;;;;22.02;14.95;;;;;;;0.97;71.25;95140.78;1689967;83;21002;-61
2021/12/14 01:40:53;;;;;;;27.48;16.75;;;;;;;1.13;70.83;95144.75;1716738;83;21152;-63
2021/12/14 01:43:30;;;;;;;19.30;13.22;;;;;;;1.11;70.45;95144.95;1713445;83;20974;-60
2021/12/14 01:46:01;;;;;;;23.95;15.15;;;;;;;1.01;70.58;95142.37;1710572;83;21481;-60
2021/12/14 01:48:30;;;;;;;20.23;13.65;;;;;;;0.96;70.68;95146.00;1708303;83;21581;-60
2021/12/14 01:51:16;;;;;;;18.42;12.82;;;;;;;0.92;70.72;95151.97;1711243;83;20994;-60
2021/12/14 01:54:00;;;;;;;21.17;13.30;;;;;;;0.84;70.71;95151.14;1708073;83;21144;-62
2021/12/14 01:56:29;;;;;;;26.73;16.10;;;;;;;0.76;70.89;95156.28;1706502;83;21179;-60
2021/12/14 01:59:00;;;;;;;16.50;12.73;;;;;;;0.68;71.16;95145.20;1707708;83;21037;-61
2021/12/14 02:01:37;;;;;;;18.77;12.88;;;;;;;0.69;71.22;95148.11;1698878;83;21243;-60
2021/12/14 02:04:10;;;;;;;21.20;13.65;;;;;;;0.65;71.29;95144.61;1717633;83;20975;-60
2021/12/14 02:06:40;;;;;;;19.32;13.53;;;;;;;0.63;71.39;95142.82;1712275;83;21822;-60
2021/12/14 02:09:11;;;;;;;21.52;14.07;;;;;;;0.62;71.34;95145.33;1705239;83;21642;-61
2021/12/14 02:11:43;;;;;;;24.45;15.15;;;;;;;0.63;71.50;95141.47;1701576;83;21048;-61
2021/12/14 02:14:13;;;;;;;22.75;14.95;;;;;;;0.60;71.47;95143.58;1694659;83;21165;-61
2021/12/14 02:16:41;;;;;;;19.40;13.83;;;;;;;0.57;71.61;95148.98;1695709;83;20972;-62
2021/12/14 02:19:14;;;;;;;19.45;13.35;;;;;;;0.52;71.58;95143.33;1680516;83;21877;-61
2021/12/14 02:21:45;;;;;;;20.02;13.83;;;;;;;0.45;71.79;95141.89;1669414;84;21017;-60
2021/12/14 02:24:14;;;;;;;17.48;12.03;;;;;;;0.55;72.27;95135.80;1685904;83;21013;-60
2021/12/14 02:26:42;;;;;;;18.27;13.62;;;;;;;0.65;71.84;95153.28;1703012;83;20981;-62
2021/12/14 02:29:13;;;;;;;16.17;13.03;;;;;;;0.60;71.60;95138.16;1680540;83;21512;-60
2021/12/14 02:31:40;;;;;;;16.90;13.83;;;;;;;0.50;71.75;95146.19;1677730;83;22172;-62
2021/12/14 02:34:08;;;;;;;21.07;15.35;;;;;;;0.46;71.91;95148.88;1690046;83;21630;-62
2021/12/14 02:36:42;;;;;;;19.17;14.10;;;;;;;0.44;72.12;95145.75;1683597;83;20996;-62
2021/12/14 02:39:24;;;;;;;15.32;12.88;;;;;;;0.44;72.16;95151.16;1667349;83;21472;-61
2021/12/14 02:41:49;;;;;;;17.90;13.53;;;;;;;0.45;72.30;95144.59;1701748;83;20969;-60
2021/12/14 02:44:17;;;;;;;18.25;12.95;;;;;;;0.50;72.38;95148.89;1696216;83;21240;-60
2021/12/14 02:46:52;;;;;;;20.00;13.55;;;;;;;0.50;72.40;95146.98;1685847;83;21016;-62
2021/12/14 02:49:23;;;;;;;16.60;14.00;;;;;;;0.54;72.39;95153.20;1665084;84;21163;-64
2021/12/14 02:51:54;;;;;;;20.72;15.20;;;;;;;0.56;72.20;95148.19;1672551;83;21250;-61
2021/12/14 02:54:26;;;;;;;20.23;14.47;;;;;;;0.57;72.07;95147.03;1692672;83;21530;-61
2021/12/14 02:57:04;;;;;;;22.58;14.80;;;;;;;0.57;72.12;95149.73;1691143;83;21116;-60
2021/12/14 02:59:35;;;;;;;18.02;13.60;;;;;;;0.61;71.91;95149.78;1710806;83;21568;-62
2021/12/14 03:02:07;;;;;;;18.70;13.60;;;;;;;0.55;71.94;95149.34;1710959;83;21093;-60
2021/12/14 03:04:41;;;;;;;20.05;13.35;;;;;;;0.54;71.97;95142.94;1708934;83;21576;-60
2021/12/14 03:07:08;;;;;;;19.65;14.43;;;;;;;0.52;71.95;95139.83;1708432;83;21097;-61
2021/12/14 03:09:58;;;;;;;30.05;18.65;;;;;;;0.56;71.97;95146.83;1706554;83;21967;-61
2021/12/14 03:12:40;;;;;;;19.67;13.88;;;;;;;0.55;71.76;95143.92;1710107;83;20958;-61
2021/12/14 03:15:24;;;;;;;18.35;13.93;;;;;;;0.50;71.84;95146.19;1707422;83;21089;-62
2021/12/14 03:17:57;;;;;;;18.55;13.75;;;;;;;0.46;72.01;95152.94;1687865;83;21018;-60
2021/12/14 03:20:29;;;;;;;17.48;13.43;;;;;;;0.44;71.90;95149.80;1706674;83;21204;-61
2021/12/14 03:23:04;;;;;;;17.07;13.08;;;;;;;0.44;72.14;95155.22;1704039;83;21138;-61
2021/12/14 03:25:34;;;;;;;19.50;14.25;;;;;;;0.42;72.04;95152.11;1706983;83;21081;-62
2021/12/14 03:28:01;;;;;;;24.40;15.23;;;;;;;0.39;72.30;95151.51;1706064;83;21207;-62
2021/12/14 03:30:33;;;;;;;19.48;15.45;;;;;;;0.42;72.44;95150.00;1684839;83;21124;-64
2021/12/14 03:33:16;;;;;;;19.32;14.55;;;;;;;0.50;72.79;95143.48;1680108;83;21068;-62
2021/12/14 03:35:57;;;;;;;23.98;15.95;;;;;;;0.66;72.52;95145.36;1660381;85;21169;-64
2021/12/14 03:38:28;;;;;;;27.95;18.80;;;;;;;0.65;72.03;95146.52;1688694;85;21090;-62
2021/12/14 03:41:06;;;;;;;25.10;17.37;;;;;;;0.61;72.49;95143.77;1670593;83;21018;-66
2021/12/14 03:43:35;;;;;;;22.95;15.72;;;;;;;0.73;72.31;95144.85;1681294;84;21062;-63
2021/12/14 03:46:04;;;;;;;22.60;16.25;;;;;;;0.76;71.86;95149.52;1663993;84;21049;-61
2021/12/14 03:48:32;;;;;;;18.70;13.53;;;;;;;0.73;71.86;95148.12;1629205;86;21176;-63
2021/12/14 03:51:01;;;;;;;21.87;14.70;;;;;;;0.77;71.71;95148.36;1651669;85;21094;-62
2021/12/14 03:53:28;;;;;;;18.48;14.40;;;;;;;0.75;71.57;95147.95;1668651;84;21066;-61
2021/12/14 03:55:59;;;;;;;30.35;20.25;;;;;;;0.72;71.82;95151.98;1672678;84;21581;-60
2021/12/14 03:58:32;;;;;;;18.98;15.25;;;;;;;0.77;71.58;95147.59;1667348;83;21065;-60
2021/12/14 04:01:06;;;;;;;23.60;15.60;;;;;;;0.75;71.58;95150.66;1690825;84;21069;-60
2021/12/14 04:03:36;;;;;;;26.73;17.55;;;;;;;0.76;71.72;95145.45;1715909;83;21122;-61
2021/12/14 04:06:05;;;;;;;27.05;17.98;;;;;;;0.85;72.05;95149.19;1696460;83;21602;-62
2021/12/14 04:08:32;;;;;;;27.67;18.52;;;;;;;0.95;71.72;95150.62;1680493;83;21559;-61
2021/12/14 04:11:01;;;;;;;25.08;17.10;;;;;;;0.97;71.45;95154.32;1675841;83;21511;-63
2021/12/14 04:13:33;;;;;;;23.62;14.87;;;;;;;0.94;71.29;95158.55;1681639;83;21150;-60
2021/12/14 04:16:00;;;;;;;43.43;28.27;;;;;;;0.87;71.42;95146.32;1632236;86;21006;-62
2021/12/14 04:18:29;;;;;;;64.85;39.08;;;;;;;0.83;71.19;95152.30;1603801;87;21060;-61
2021/12/14 04:21:00;;;;;;;36.88;23.20;;;;;;;0.82;71.36;95160.22;1648303;87;21138;-62
2021/12/14 04:23:33;;;;;;;25.37;18.50;;;;;;;0.83;71.11;95158.27;1650611;87;21127;-63
2021/12/14 04:26:00;;;;;;;31.82;20.52;;;;;;;0.78;71.33;95158.03;1650982;87;21134;-61
2021/12/14 04:28:32;;;;;;;24.87;17.07;;;;;;;0.73;71.16;95158.95;1650643;86;21569;-65
2021/12/14 04:31:01;;;;;;;21.80;15.03;;;;;;;0.73;71.40;95160.30;1650692;87;21024;-63
2021/12/14 04:33:33;;;;;;;21.52;15.65;;;;;;;0.68;71.21;95158.73;1651104;86;21027;-61
2021/12/14 04:36:05;;;;;;;26.37;18.70;;;;;;;0.58;71.22;95163.47;1637550;87;21043;-61
2021/12/14 04:38:38;;;;;;;32.45;18.55;;;;;;;0.47;71.49;95158.56;1650276;85;21154;-59
2021/12/14 04:52:18;;;;;;;59.25;37.48;;;;;;;0.69;72.47;95165.70;1705064;83;21971;-61
2021/12/14 04:54:54;;;;;;;38.25;26.27;;;;;;;0.88;71.85;95163.33;1705580;83;21078;-61
2021/12/14 04:57:26;;;;;;;28.17;20.12;;;;;;;0.94;71.33;95169.37;1687907;83;21072;-65
2021/12/14 04:59:56;;;;;;;27.63;19.93;;;;;;;0.90;71.27;95168.58;1705832;83;21065;-61
2021/12/14 05:02:29;;;;;;;31.37;20.35;;;;;;;0.89;71.20;95167.03;1709978;83;20990;-61
2021/12/14 05:05:05;;;;;;;27.37;19.15;;;;;;;0.84;71.08;95166.59;1711399;83;21187;-61
2021/12/14 05:10:06;;;;;;;28.23;21.75;;;;;;;0.83;71.54;95174.52;1710684;83;21033;-63
2021/12/14 05:12:35;;;;;;;;;;;;;;;0.88;71.09;95174.95;1686918;83;21586;-63
2021/12/14 05:15:11;;;;;;;46.50;29.37;;;;;;;0.89;71.12;95177.86;1709508;83;20211;-62
2021/12/14 05:17:44;;;;;;;29.05;20.37;;;;;;;0.86;71.15;95184.03;1684556;83;21608;-64
2021/12/14 05:20:15;;;;;;;30.00;21.30;;;;;;;0.86;71.07;95175.91;1711810;83;21559;-57
2021/12/14 05:22:44;;;;;;;29.65;21.90;;;;;;;0.80;70.92;95182.04;1708008;83;21057;-59
2021/12/14 05:25:21;;;;;;;34.30;23.12;;;;;;;0.74;71.31;95185.66;1712467;83;21057;-57
2021/12/14 05:27:57;;;;;;;25.75;19.50;;;;;;;0.83;71.54;95184.78;1711594;83;21068;-56
2021/12/14 05:30:43;;;;;;;23.62;16.95;;;;;;;0.93;71.37;95184.67;1711459;83;21168;-61
2021/12/14 05:33:32;;;;;;;29.87;20.50;;;;;;;1.01;70.95;95191.13;1692610;83;21424;-63
2021/12/14 05:36:08;;;;;;;31.15;20.35;;;;;;;0.93;70.78;95188.73;1674186;84;20994;-62
2021/12/14 05:38:53;;;;;;;36.73;21.80;;;;;;;0.90;70.93;95188.89;1712906;83;21187;-56
2021/12/14 05:44:00;;;;;;;39.90;25.75;;;;;;;0.87;70.96;95197.77;1688957;83;21806;-57
2021/12/14 05:46:29;;;;;;;50.60;33.63;;;;;;;0.84;70.91;95196.38;1705769;83;21434;-59
2021/12/14 05:49:12;;;;;;;45.10;30.32;;;;;;;0.83;70.95;95200.24;1704905;83;20990;-58
2021/12/14 05:51:42;;;;;;;40.43;26.07;;;;;;;0.81;71.11;95200.60;1690943;83;20962;-62
2021/12/14 05:54:09;;;;;;;44.77;29.48;;;;;;;0.77;71.13;95199.03;1710976;83;21136;-59
2021/12/14 05:56:36;;;;;;;51.23;30.75;;;;;;;0.77;71.22;95199.80;1685508;83;21170;-59
2021/12/14 05:59:04;;;;;;;48.58;30.62;;;;;;;0.78;71.44;95194.59;1689457;83;21434;-58
2021/12/14 06:01:32;;;;;;;48.60;29.90;;;;;;;0.90;71.44;95184.83;1709958;83;20962;-57
2021/12/14 06:04:03;;;;;;;51.95;29.02;;;;;;;1.05;71.14;95197.34;1710600;83;21029;-65
2021/12/14 06:06:41;;;;;;;51.02;29.82;;;;;;;1.07;70.82;95190.97;1686114;83;21103;-60
2021/12/14 06:09:25;;;;;;;43.35;25.15;;;;;;;1.09;70.69;95198.14;1663691;84;21150;-58
2021/12/14 06:12:11;;;;;;;31.10;21.40;;;;;;;1.14;70.44;95203.20;1690065;83;21488;-59
2021/12/14 06:14:50;;;;;;;31.68;21.80;;;;;;;1.08;70.24;95210.69;1687427;83;21035;-62
2021/12/14 06:17:11;;;;;;;40.55;23.52;;;;;;;1.02;70.72;95207.57;1709033;83;21511;-58
2021/12/14 06:19:42;;;;;;;37.20;25.82;;;;;;;1.10;70.63;95206.46;1712949;83;20964;-58
2021/12/14 06:22:17;;;;;;;39.80;26.82;;;;;;;1.12;70.51;95213.63;1712937;83;21161;-58
2021/12/14 06:24:52;;;;;;;41.13;27.15;;;;;;;1.10;70.64;95215.19;1689933;83;21048;-60
2021/12/14 06:27:23;;;;;;;47.13;30.92;;;;;;;1.21;70.82;95218.73;1692717;83;22279;-60
2021/12/14 06:30:00;;;;;;;46.35;29.23;;;;;;;1.34;70.67;95218.05;1698994;83;21096;-61
2021/12/14 06:32:39;;;;;;;55.00;32.85;;;;;;;1.50;70.50;95213.13;1684683;83;21132;-59
2021/12/14 06:35:16;;;;;;;51.60;32.03;;;;;;;1.64;70.13;95213.78;1658978;83;21156;-61
2021/12/14 06:38:30;;;;;;;52.80;31.93;;;;;;;1.75;69.86;95211.35;1683377;83;20958;-58
2021/12/14 06:41:22;;;;;;;58.50;35.75;;;;;;;1.84;69.44;95211.77;1692152;83;21336;-59
2021/12/14 06:43:58;;;;;;;92.80;50.03;;;;;;;1.84;68.99;95218.55;1688311;83;21140;-63
2021/12/14 06:46:33;;;;;;;258.63;119.95;;;;;;;1.68;68.81;95230.28;1674388;83;21081;-69
2021/12/14 06:49:08;;;;;;;152.02;78.90;;;;;;;1.59;69.03;95227.70;1689276;82;21109;-61
2021/12/14 06:51:46;;;;;;;86.90;52.55;;;;;;;1.51;69.13;95230.18;1661796;83;21479;-61
2021/12/14 06:54:22;;;;;;;73.33;42.25;;;;;;;1.56;69.35;95233.89;1649843;84;21159;-64
2021/12/14 06:56:55;;;;;;;74.53;44.80;;;;;;;1.67;68.93;95236.09;1699443;83;21041;-63
2021/12/14 06:59:43;;;;;;;46.83;30.97;;;;;;;1.65;68.63;95229.69;1649871;84;20890;-67
2021/12/14 07:02:12;;;;;;;50.23;30.02;;;;;;;1.60;68.60;95234.11;1669697;83;21081;-66
2021/12/14 07:04:48;;;;;;;46.05;27.22;;;;;;;1.56;68.84;95238.74;1700390;82;21051;-61
2021/12/14 07:07:23;;;;;;;49.18;30.75;;;;;;;1.51;68.86;95243.73;1689999;82;21474;-62
2021/12/14 07:09:56;;;;;;;35.70;25.20;;;;;;;1.40;69.15;95241.52;1689041;82;21024;-62
2021/12/14 07:12:27;;;;;;;42.45;28.23;;;;;;;1.35;69.28;95237.22;1702950;83;21045;-64
2021/12/14 07:15:02;;;;;;;58.42;34.92;;;;;;;1.31;69.80;95241.08;1697339;82;21141;-69
2021/12/14 07:17:41;;;;;;;69.58;42.95;;;;;;;1.34;69.92;95243.80;1673899;83;21006;-74
2021/12/14 07:20:24;;;;;;;68.47;42.05;;;;;;;1.38;70.16;95245.98;1672711;83;21017;-80
2021/12/14 07:23:04;;;;;;;91.32;53.87;;;;;;;1.44;70.41;95249.88;1664743;83;21046;-72
2021/12/14 07:25:39;;;;;;;65.25;41.58;;;;;;;1.50;70.43;95243.53;1677539;83;21078;-67
2021/12/14 07:28:14;;;;;;;65.90;39.25;;;;;;;1.54;70.56;95237.55;1681522;82;21151;-79
2021/12/14 07:30:49;;;;;;;72.40;43.48;;;;;;;1.70;70.49;95243.47;1687003;82;21059;-75
2021/12/14 07:33:31;;;;;;;85.95;50.83;;;;;;;1.74;70.19;95245.05;1654864;83;21046;-70
2021/12/14 07:36:08;;;;;;;105.37;61.85;;;;;;;1.77;70.23;95253.78;1686357;82;21018;-68
2021/12/14 07:39:04;;;;;;;86.47;52.85;;;;;;;1.95;70.17;95246.52;1674564;82;21050;-66
2021/12/14 07:41:53;;;;;;;109.85;63.40;;;;;;;2.13;69.79;95240.60;1644717;82;22358;-70
2021/12/14 07:44:33;;;;;;;63.40;40.90;;;;;;;2.26;68.91;95245.87;1672775;82;21012;-69
2021/12/14 07:47:11;;;;;;;60.45;39.40;;;;;;;2.23;68.56;95239.85;1643921;83;21363;-59
2021/12/14 07:49:44;;;;;;;56.50;36.33;;;;;;;2.20;68.45;95237.91;1674091;83;21115;-65
2021/12/14 07:52:16;;;;;;;61.92;39.38;;;;;;;2.14;68.36;95238.09;1680204;82;21026;-63
2021/12/14 07:54:52;;;;;;;67.65;41.58;;;;;;;2.10;68.46;95245.44;1676937;83;21799;-65
2021/12/14 07:57:27;;;;;;;56.13;36.98;;;;;;;2.12;68.72;95237.09;1681817;83;21011;-69
2021/12/14 08:00:10;;;;;;;;;;;;;;;;;;;;;
2021/12/14 08:02:36;;;;;;;53.02;36.38;;;;;;;2.16;68.39;95243.91;1674853;83;22376;-69
2021/12/14 08:05:31;;;;;;;54.98;34.80;;;;;;;2.18;68.72;95242.94;1671889;83;21003;-65
2021/12/14 08:08:15;;;;;;;60.85;36.48;;;;;;;2.24;68.49;95248.19;1670583;83;21128;-67
2021/12/14 08:10:47;;;;;;;56.75;35.40;;;;;;;2.27;68.21;95258.28;1684592;82;20997;-67
2021/12/14 08:13:23;;;;;;;53.13;35.68;;;;;;;2.18;68.40;95249.12;1654319;82;21057;-60
2021/12/14 08:16:00;;;;;;;47.93;33.18;;;;;;;2.17;68.56;95252.24;1687519;83;21120;-68
2021/12/14 08:18:31;;;;;;;46.75;31.02;;;;;;;2.20;68.53;95246.84;1683428;82;21003;-64
2021/12/14 08:21:19;;;;;;;44.67;29.98;;;;;;;2.32;68.62;95255.22;1661309;82;21582;-68
2021/12/14 08:23:59;;;;;;;48.08;31.07;;;;;;;2.37;68.05;95256.99;1682760;83;21105;-74
2021/12/14 08:26:40;;;;;;;51.08;32.78;;;;;;;2.36;67.96;95248.62;1676781;82;21076;-62
2021/12/14 08:29:21;;;;;;;55.23;35.48;;;;;;;2.36;68.13;95256.00;1614904;84;21609;-59
2021/12/14 08:31:55;;;;;;;53.80;35.73;;;;;;;2.53;68.25;95260.13;1682768;83;22323;-61
2021/12/14 08:34:26;;;;;;;47.35;32.03;;;;;;;2.79;67.68;95250.88;1682362;83;21162;-62
2021/12/14 08:37:16;;;;;;;61.98;37.40;;;;;;;3.01;67.00;95248.39;1684280;83;21112;-73
2021/12/14 08:39:50;;;;;;;38.73;25.40;;;;;;;3.12;66.16;95251.34;1672745;83;21060;-61
2021/12/14 08:42:43;;;;;;;60.60;36.63;;;;;;;3.08;65.75;95243.74;1701279;82;21053;-60
2021/12/14 08:45:26;;;;;;;44.10;27.93;;;;;;;3.15;65.73;95245.70;1673923;83;21079;-60
2021/12/14 08:48:19;;;;;;;28.27;19.05;;;;;;;3.22;65.33;95247.08;1667947;82;21217;-60
2021/12/14 08:50:55;;;;;;;23.32;17.02;;;;;;;3.17;64.69;95241.44;1686087;83;21021;-68
2021/12/14 08:53:31;;;;;;;22.05;14.93;;;;;;;3.14;64.57;95240.06;1694150;82;21073;-59
2021/12/14 08:55:59;;;;;;;38.98;24.87;;;;;;;3.12;64.32;95236.96;1687850;83;21497;-62
2021/12/14 08:58:26;;;;;;;43.33;27.62;;;;;;;3.20;64.40;95238.53;1699578;82;21047;-60
2021/12/14 09:01:07;;;;;;;40.67;25.10;;;;;;;3.40;64.52;95231.54;1699904;82;21153;-61
2021/12/14 09:03:40;;;;;;;38.20;24.75;;;;;;;3.53;63.81;95231.51;1700945;83;21243;-59
2021/12/14 09:06:11;;;;;;;32.00;22.62;;;;;;;3.50;63.71;95232.29;1676754;83;21068;-62
2021/12/14 09:08:39;;;;;;;49.65;32.25;;;;;;;3.49;63.51;95225.30;1667407;83;21030;-60
2021/12/14 09:11:06;;;;;;;44.88;27.58;;;;;;;3.64;62.99;95228.77;1613135;85;21114;-69
2021/12/14 09:13:34;;;;;;;39.60;26.90;;;;;;;3.71;62.80;95232.86;1698759;82;21158;-58
2021/12/14 09:16:16;;;;;;;35.75;23.32;;;;;;;3.64;62.69;95230.92;1695938;82;21218;-60
2021/12/14 09:18:55;;;;;;;36.50;24.77;;;;;;;3.58;63.28;95229.77;1666081;83;22437;-62
2021/12/14 09:21:28;;;;;;;38.35;27.42;;;;;;;3.72;63.31;95238.48;1698327;82;21079;-69
2021/12/14 09:23:59;;;;;;;43.02;28.55;;;;;;;3.85;63.14;95230.88;1693971;82;21070;-62
2021/12/14 09:26:31;;;;;;;56.50;33.45;;;;;;;3.94;62.73;95232.63;1695446;82;21163;-67
2021/12/14 09:29:08;;;;;;;56.88;36.08;;;;;;;3.91;62.48;95229.30;1683405;83;21060;-60
2021/12/14 09:31:40;;;;;;;54.13;33.98;;;;;;;3.75;62.93;95225.46;1641783;84;21100;-60
2021/12/14 09:34:09;;;;;;;49.85;33.15;;;;;;;3.71;63.08;95229.54;1672365;83;21671;-61
2021/12/14 09:36:36;;;;;;;51.10;33.80;;;;;;;3.67;63.31;95225.30;1675153;83;21586;-64
2021/12/14 09:39:35;;;;;;;51.23;33.58;;;;;;;3.62;63.28;95222.95;1647519;83;21075;-68
2021/12/14 09:42:06;;;;;;;54.27;31.10;;;;;;;3.53;63.61;95221.98;1700960;82;21495;-60
2021/12/14 09:44:41;;;;;;;55.33;33.60;;;;;;;3.62;63.65;95212.06;1680094;83;21047;-64
2021/12/14 09:47:16;;;;;;;63.20;40.58;;;;;;;3.56;63.48;95218.52;1663856;83;21035;-68
2021/12/14 09:49:54;;;;;;;69.00;42.48;;;;;;;3.48;63.81;95214.23;1677831;83;21154;-65
2021/12/14 09:52:31;;;;;;;54.40;33.18;;;;;;;3.49;63.76;95208.98;1654711;83;21145;-68
2021/12/14 09:55:01;;;;;;;51.58;32.73;;;;;;;3.50;63.64;95211.89;1679530;83;22107;-68
2021/12/14 09:57:50;;;;;;;52.05;32.98;;;;;;;3.46;63.85;95212.30;1673104;83;21681;-70
2021/12/14 10:00:28;;;;;;;48.60;30.37;;;;;;;3.44;63.73;95207.83;1654525;83;21043;-71
2021/12/14 10:02:59;;;;;;;52.13;32.53;;;;;;;3.47;63.73;95213.28;1670991;83;21547;-74
2021/12/14 10:05:31;;;;;;;52.65;31.07;;;;;;;3.51;63.79;95201.80;1679911;82;21569;-82
2021/12/14 10:07:58;;;;;;;63.08;38.67;;;;;;;3.65;63.49;95199.83;1680699;82;21036;-66
2021/12/14 10:10:29;;;;;;;60.10;36.93;;;;;;;3.75;63.54;95199.61;1671796;83;22090;-69
2021/12/14 10:12:56;;;;;;;47.27;29.50;;;;;;;3.83;63.25;95180.16;1680087;82;21108;-70
2021/12/14 10:15:48;;;;;;;42.27;28.25;;;;;;;4.01;63.22;95182.23;1679596;82;21610;-70
2021/12/14 10:18:20;;;;;;;46.45;28.83;;;;;;;4.12;62.95;95179.47;1670707;82;21025;-71
2021/12/14 10:20:57;;;;;;;42.03;26.87;;;;;;;4.25;62.50;95173.78;1679870;83;21560;-70
2021/12/14 10:23:25;;;;;;;41.53;26.50;;;;;;;4.31;62.09;95164.81;1683688;83;22313;-69
2021/12/14 10:25:53;;;;;;;35.25;25.25;;;;;;;4.33;61.51;95175.28;1678039;82;21067;-64
2021/12/14 10:28:23;;;;;;;38.13;25.15;;;;;;;4.40;61.43;95170.58;1679788;83;21495;-68
2021/12/14 10:30:56;;;;;;;35.35;23.65;;;;;;;4.55;61.23;95165.83;1650350;82;22396;-66
2021/12/14 10:33:24;;;;;;;35.17;24.23;;;;;;;4.69;60.84;95155.63;1664860;82;21068;-70
2021/12/14 10:35:56;;;;;;;27.62;18.15;;;;;;;4.82;60.24;95159.42;1687820;82;21494;-70
2021/12/14 10:38:29;;;;;;;23.50;16.50;;;;;;;4.85;59.52;95161.37;1679485;82;21907;-66
2021/12/14 10:43:54;;;;;;;33.90;22.58;;;;;;;4.81;59.25;95153.78;1694546;82;21130;-64
2021/12/14 10:46:29;;;;;;;29.02;20.02;;;;;;;4.73;59.98;95152.29;1686295;83;21109;-63
2021/12/14 10:48:56;;;;;;;26.37;18.42;;;;;;;4.83;59.51;95154.16;1698152;82;21899;-66
2021/12/14 10:51:27;;;;;;;23.57;17.17;;;;;;;4.92;59.28;95144.95;1694437;82;21055;-65
2021/12/14 10:53:59;;;;;;;25.40;18.62;;;;;;;4.88;59.37;95144.78;1695066;83;21406;-63
2021/12/14 10:56:30;;;;;;;34.23;23.32;;;;;;;4.73;59.56;95144.12;1693831;82;22196;-65
2021/12/14 10:59:00;;;;;;;32.67;22.22;;;;;;;4.70;60.19;95142.20;1660290;83;21166;-63
2021/12/14 11:01:32;;;;;;;36.17;23.70;;;;;;;4.70;60.18;95133.23;1653738;83;21126;-60
2021/12/14 11:04:09;;;;;;;34.25;22.65;;;;;;;4.67;60.18;95134.03;1677018;83;21081;-65
2021/12/14 11:06:42;;;;;;;40.63;27.27;;;;;;;4.62;60.23;95130.38;1697249;82;21304;-60
2021/12/14 11:12:26;;;;;;;34.55;24.25;;;;;;;4.35;61.12;95126.64;1697884;82;21092;-64
2021/12/14 11:14:59;;;;;;;32.70;22.20;;;;;;;4.32;61.27;95124.15;1680542;83;21983;-62
2021/12/14 11:20:16;;;;;;;49.20;32.50;;;;;;;4.29;61.02;95124.16;1689748;83;21015;-62
2021/12/14 11:23:00;;;;;;;48.37;31.07;;;;;;;4.22;61.61;95120.88;1683269;83;21614;-65
2021/12/14 11:25:54;;;;;;;46.65;32.67;;;;;;;4.22;61.61;95120.88;1673845;83;21545;-60
2021/12/14 11:28:33;;;;;;;42.88;28.90;;;;;;;4.22;61.69;95111.35;1683699;83;21625;-63
2021/12/14 11:31:28;;;;;;;39.67;28.00;;;;;;;4.20;61.75;95116.42;1686464;83;20998;-63
2021/12/14 11:34:00;;;;;;;38.85;26.97;;;;;;;4.19;61.99;95108.06;1682617;83;21589;-63
2021/12/14 11:36:37;;;;;;;37.90;26.50;;;;;;;4.33;61.95;95103.13;1680109;82;21838;-62
2021/12/14 11:39:24;;;;;;;40.75;28.47;;;;;;;4.38;61.67;95110.29;1691707;83;21080;-62
2021/12/14 11:41:57;;;;;;;42.30;28.32;;;;;;;4.33;62.02;95115.37;1682103;83;21067;-65
2021/12/14 11:44:38;;;;;;;36.45;25.77;;;;;;;4.39;62.05;95120.01;1698618;83;21067;-64
2021/12/14 11:50:04;;;;;;;46.13;28.75;;;;;;;4.57;61.87;95111.73;1679521;83;21114;-68
2021/12/14 11:52:53;;;;;;;37.30;24.72;;;;;;;4.60;61.65;95112.30;1692808;83;21093;-63
2021/12/14 11:56:00;;;;;;;31.82;22.10;;;;;;;4.63;61.69;95104.08;1676897;83;21180;-66
2021/12/14 11:58:33;;;;;;;48.85;31.65;;;;;;;4.67;61.35;95118.48;1681936;83;21020;-60
2021/12/14 12:01:22;;;;;;;37.20;25.40;;;;;;;4.65;61.55;95112.66;1686692;83;21082;-59
2021/12/14 12:04:03;;;;;;;42.95;27.55;;;;;;;4.69;61.26;95112.61;1671398;83;22322;-61
2021/12/14 12:09:37;;;;;;;42.10;26.45;;;;;;;4.64;61.35;95116.52;1684900;83;20998;-67
2021/12/14 12:12:09;;;;;;;43.78;25.68;;;;;;;4.67;61.22;95108.16;1675910;82;21066;-68
2021/12/14 12:14:50;;;;;;;30.43;20.00;;;;;;;4.77;61.11;95108.07;1705595;82;21347;-65
2021/12/14 12:17:44;;;;;;;28.10;18.35;;;;;;;4.79;60.83;95105.72;1695894;82;21497;-63
2021/12/14 12:20:29;;;;;;;27.20;18.92;;;;;;;4.75;60.63;95103.61;1682023;82;21091;-63
2021/12/14 12:23:07;;;;;;;27.70;18.87;;;;;;;4.71;60.54;95111.05;1701513;83;22408;-63
2021/12/14 12:25:59;;;;;;;28.98;20.48;;;;;;;4.62;60.75;95103.89;1696741;82;21154;-62
2021/12/14 12:28:29;;;;;;;39.65;25.60;;;;;;;4.56;60.97;95105.50;1683440;82;21581;-61
2021/12/14 12:31:15;;;;;;;48.27;30.80;;;;;;;4.47;61.44;95105.19;1688156;82;21137;-67
2021/12/14 12:33:54;;;;;;;57.13;34.90;;;;;;;4.32;61.83;95100.20;1684029;83;21303;-63
2021/12/14 12:36:37;;;;;;;58.98;35.75;;;;;;;4.15;62.33;95095.06;1676654;82;21050;-65
2021/12/14 12:39:10;;;;;;;;;;;;;;;4.00;62.96;95090.86;1687355;83;21012;-62
2021/12/14 12:41:58;;;;;;;57.70;34.03;;;;;;;3.87;63.58;95091.11;1688731;83;20491;-62